createdAt,value
2022-11-24T00:02:48.857Z,10.02
2022-11-24T00:07:50.474Z,10.05
2022-11-24T00:12:51.934Z,10.09
2022-11-24T00:17:53.372Z,10.15
2022-11-24T00:22:55.874Z,10.21
2022-11-24T00:27:57.296Z,10.26
2022-11-24T00:32:58.763Z,10.30
2022-11-24T00:38:00.239Z,10.28
2022-11-24T00:43:01.704Z,10.30
2022-11-24T00:48:03.252Z,10.32
2022-11-24T00:53:04.747Z,10.35
2022-11-24T00:58:06.181Z,10.38
2022-11-24T01:03:07.628Z,10.41
2022-11-24T01:08:09.971Z,10.44
2022-11-24T01:13:13.244Z,10.41
2022-11-24T01:18:14.682Z,10.41
2022-11-24T01:23:16.138Z,10.42
2022-11-24T01:28:17.590Z,10.46
2022-11-24T01:33:19.030Z,10.50
2022-11-24T01:38:21.184Z,10.54
2022-11-24T01:43:22.656Z,10.54
2022-11-24T01:48:29.819Z,10.57
2022-11-24T01:53:31.355Z,10.54
2022-11-24T01:58:36.338Z,10.54
2022-11-24T02:03:40.334Z,10.54
2022-11-24T02:09:05.924Z,10.54
2022-11-24T02:14:11.543Z,10.50
2022-11-24T02:19:26.537Z,10.50
2022-11-24T02:24:31.148Z,10.45
2022-11-24T02:29:33.043Z,10.38
2022-11-24T02:34:35.131Z,10.28
2022-11-24T02:39:36.931Z,10.12
2022-11-24T02:44:44.315Z,9.93
2022-11-24T02:49:45.789Z,9.79
2022-11-24T02:54:47.198Z,9.85
2022-11-24T02:59:48.879Z,9.82
2022-11-24T03:04:50.314Z,9.73
2022-11-24T03:09:51.758Z,9.75
2022-11-24T03:14:53.207Z,9.82
2022-11-24T03:19:54.718Z,9.86
2022-11-24T03:24:56.139Z,9.90
2022-11-24T03:29:57.560Z,9.95
2022-11-24T03:34:59.039Z,9.93
2022-11-24T03:40:00.521Z,9.91
2022-11-24T03:45:29.875Z,9.87
2022-11-24T03:50:23.481Z,9.87
2022-11-24T03:55:25.016Z,9.91
2022-11-24T04:00:26.569Z,9.96
2022-11-24T04:05:28.069Z,10.00
2022-11-24T04:10:30.222Z,10.01
2022-11-24T04:15:31.642Z,10.01
2022-11-24T04:20:33.628Z,10.03
2022-11-24T04:25:35.624Z,10.09
2022-11-24T04:30:38.556Z,10.10
2022-11-24T04:35:40.184Z,10.05
2022-11-24T04:40:41.649Z,9.98
2022-11-24T04:45:43.050Z,9.95
2022-11-24T04:50:44.528Z,9.91
2022-11-24T04:55:45.970Z,9.86
2022-11-24T05:00:47.411Z,9.77
2022-11-24T05:05:48.818Z,9.85
2022-11-24T05:10:50.269Z,9.96
2022-11-24T05:15:51.933Z,10.09
2022-11-24T05:20:53.433Z,10.15
2022-11-24T05:26:01.150Z,10.13
2022-11-24T05:31:03.373Z,10.18
2022-11-24T05:36:06.768Z,10.23
2022-11-24T05:41:08.927Z,10.28
2022-11-24T05:46:10.352Z,10.30
2022-11-24T05:51:11.873Z,10.32
2022-11-24T05:56:13.342Z,10.33
2022-11-24T06:01:14.875Z,10.31
2022-11-24T06:06:16.325Z,10.26
2022-11-24T06:11:17.761Z,10.23
2022-11-24T06:16:19.429Z,10.15
2022-11-24T06:21:21.025Z,10.02
2022-11-24T06:26:22.538Z,9.99
2022-11-24T06:31:24.033Z,9.94
2022-11-24T06:36:25.704Z,9.83
2022-11-24T06:41:27.152Z,9.72
2022-11-24T06:46:28.951Z,9.65
2022-11-24T06:51:30.447Z,9.53
2022-11-24T06:56:31.949Z,9.43
2022-11-24T07:01:33.553Z,9.38
2022-11-24T07:06:34.989Z,9.33
2022-11-24T07:11:36.542Z,9.28
2022-11-24T07:16:39.439Z,9.17
2022-11-24T07:21:40.925Z,9.09
2022-11-24T07:26:42.378Z,9.02
2022-11-24T07:31:45.653Z,9.00
2022-11-24T07:36:47.153Z,8.98
2022-11-24T07:41:48.571Z,9.00
2022-11-24T07:46:51.263Z,9.02
2022-11-24T07:51:52.693Z,9.01
2022-11-24T07:56:54.137Z,9.05
2022-11-24T08:01:55.591Z,9.05
2022-11-24T08:06:57.079Z,9.02
2022-11-24T08:11:58.520Z,9.01
2022-11-24T08:17:00.175Z,9.30
2022-11-24T08:22:01.730Z,9.59
2022-11-24T08:27:03.639Z,9.63
2022-11-24T08:32:05.373Z,9.83
2022-11-24T08:37:07.086Z,10.02
2022-11-24T08:42:08.549Z,10.24
2022-11-24T08:47:10.009Z,10.23
2022-11-24T08:52:11.593Z,10.19
2022-11-24T08:57:18.714Z,10.21
2022-11-24T09:02:23.136Z,10.26
2022-11-24T09:07:24.613Z,10.23
2022-11-24T09:12:26.185Z,10.13
2022-11-24T09:17:27.590Z,10.12
2022-11-24T09:22:31.070Z,10.07
2022-11-24T09:27:32.664Z,10.06
2022-11-24T09:32:34.094Z,10.19
2022-11-24T09:37:35.866Z,10.36
2022-11-24T09:42:53.661Z,10.39
2022-11-24T09:48:11.363Z,10.21
2022-11-24T09:53:18.719Z,10.16
2022-11-24T09:58:42.513Z,10.80
2022-11-24T10:03:52.543Z,12.19
2022-11-24T10:09:03.353Z,12.24
2022-11-24T10:14:24.362Z,12.33
2022-11-24T10:19:47.303Z,12.15
2022-11-24T10:25:07.019Z,12.40
2022-11-24T10:30:21.812Z,12.91
2022-11-24T10:35:30.842Z,12.41
2022-11-24T10:40:57.037Z,12.21
2022-11-24T10:46:16.768Z,12.29
2022-11-24T10:51:46.692Z,13.14
2022-11-24T10:56:51.463Z,12.76
2022-11-24T11:01:53.471Z,12.57
2022-11-24T11:07:21.221Z,12.68
2022-11-24T11:12:43.183Z,12.65
2022-11-24T11:17:46.087Z,12.69
2022-11-24T11:22:49.150Z,12.54
2022-11-24T11:27:50.604Z,12.59
2022-11-24T11:38:21.820Z,12.40
2022-11-24T11:43:31.613Z,12.28
2022-11-24T11:48:43.228Z,12.20
2022-11-24T11:53:52.521Z,11.99
2022-11-24T11:59:12.864Z,12.01
2022-11-24T12:04:24.263Z,12.60
2022-11-24T12:09:50.362Z,13.18
2022-11-24T12:15:10.488Z,13.37
2022-11-24T12:20:31.051Z,13.57
2022-11-24T12:25:42.544Z,13.75
2022-11-24T12:31:07.932Z,13.77
2022-11-24T12:36:13.992Z,13.53
2022-11-24T12:41:42.462Z,13.38
2022-11-24T12:47:00.798Z,13.37
2022-11-24T12:52:35.465Z,13.59
2022-11-24T12:57:44.528Z,13.57
2022-11-24T13:03:04.636Z,13.46
2022-11-24T13:08:06.485Z,13.19
2022-11-24T13:13:09.035Z,12.85
2022-11-24T13:18:49.016Z,12.85
2022-11-24T13:23:59.688Z,12.96
2022-11-24T13:29:13.353Z,13.07
2022-11-24T13:34:40.929Z,13.08
2022-11-24T13:39:56.088Z,12.97
2022-11-24T13:45:01.914Z,12.98
2022-11-24T13:50:15.275Z,12.98
2022-11-24T13:55:16.772Z,12.96
2022-11-24T14:00:32.067Z,13.01
2022-11-24T14:05:40.045Z,13.14
2022-11-24T14:10:43.002Z,13.07
2022-11-24T14:15:45.001Z,12.78
2022-11-24T14:20:46.583Z,12.56
2022-11-24T14:25:52.512Z,12.39
2022-11-24T14:31:18.783Z,12.20
2022-11-24T14:36:20.221Z,12.06
2022-11-24T14:41:26.274Z,11.96
2022-11-24T14:46:27.831Z,11.85
2022-11-24T14:51:32.394Z,11.72
2022-11-24T14:56:39.221Z,11.61
2022-11-24T15:01:40.804Z,11.52
2022-11-24T15:06:44.865Z,11.41
2022-11-24T15:11:46.445Z,11.31
2022-11-24T15:16:47.988Z,11.21
2022-11-24T15:21:49.477Z,11.09
2022-11-24T15:26:59.825Z,10.94
2022-11-24T15:32:01.302Z,10.81
2022-11-24T15:37:02.893Z,10.68
2022-11-24T15:42:04.508Z,10.53
2022-11-24T15:47:05.913Z,10.41
2022-11-24T15:52:07.382Z,10.28
2022-11-24T15:57:10.757Z,10.16
2022-11-24T16:02:12.286Z,10.05
2022-11-24T16:07:14.498Z,9.94
2022-11-24T16:12:15.970Z,9.83
2022-11-24T16:17:17.402Z,9.75
2022-11-24T16:22:18.868Z,9.67
2022-11-24T16:27:22.192Z,9.55
2022-11-24T16:32:23.673Z,9.42
2022-11-24T16:37:25.147Z,9.31
2022-11-24T16:42:26.556Z,9.24
2022-11-24T16:47:27.974Z,9.04
2022-11-24T16:52:29.479Z,8.86
2022-11-24T16:57:30.941Z,8.68
2022-11-24T17:02:33.528Z,8.53
2022-11-24T17:07:35.089Z,8.34
2022-11-24T17:12:37.617Z,8.14
2022-11-24T17:17:50.007Z,7.97
2022-11-24T17:23:00.543Z,7.81
2022-11-24T17:28:02.024Z,7.69
2022-11-24T17:33:03.488Z,7.61
2022-11-24T17:38:05.057Z,7.43
2022-11-24T17:43:06.477Z,7.28
2022-11-24T17:48:08.468Z,7.16
2022-11-24T17:53:09.900Z,7.07
2022-11-24T17:58:11.383Z,7.01
2022-11-24T18:03:12.809Z,6.93
2022-11-24T18:08:14.243Z,6.82
2022-11-24T18:13:41.000Z,6.77
2022-11-24T18:18:42.851Z,6.71
2022-11-24T18:23:47.256Z,6.63
2022-11-24T18:28:48.732Z,6.46
2022-11-24T18:33:50.172Z,6.33
2022-11-24T18:38:51.671Z,6.22
2022-11-24T18:43:53.169Z,6.14
2022-11-24T18:48:54.919Z,6.12
2022-11-24T18:54:00.055Z,6.09
2022-11-24T18:59:01.519Z,6.07
2022-11-24T19:04:03.795Z,6.05
2022-11-24T19:09:16.413Z,6.05
2022-11-24T19:14:19.064Z,6.06
2022-11-24T19:19:20.749Z,5.99
2022-11-24T19:24:22.150Z,5.86
2022-11-24T19:29:23.620Z,5.79
2022-11-24T19:34:25.093Z,5.71
2022-11-24T19:39:26.554Z,5.64
2022-11-24T19:44:28.029Z,5.59
2022-11-24T19:49:29.446Z,5.55
2022-11-24T19:54:31.304Z,5.51
2022-11-24T19:59:32.754Z,5.46
2022-11-24T20:04:38.269Z,5.42
2022-11-24T20:09:39.683Z,5.38
2022-11-24T20:14:41.130Z,5.31
2022-11-24T20:19:42.622Z,5.26
2022-11-24T20:24:44.135Z,5.22
2022-11-24T20:29:47.067Z,5.15
2022-11-24T20:34:49.296Z,5.13
2022-11-24T20:39:50.890Z,5.07
2022-11-24T20:44:52.303Z,5.00
2022-11-24T20:49:53.742Z,4.93
2022-11-24T20:54:55.190Z,4.82
2022-11-24T20:59:56.636Z,4.71
2022-11-24T21:04:58.050Z,4.59
2022-11-24T21:09:59.536Z,4.50
2022-11-24T21:15:00.965Z,4.47
2022-11-24T21:20:02.446Z,4.39
2022-11-24T21:25:04.047Z,4.32
2022-11-24T21:30:06.160Z,4.26
2022-11-24T21:35:07.800Z,4.15
2022-11-24T21:40:09.633Z,4.06
2022-11-24T21:45:11.703Z,3.96
2022-11-24T21:50:13.500Z,3.89
2022-11-24T21:55:15.200Z,3.81
2022-11-24T22:00:17.150Z,3.68
2022-11-24T22:05:18.698Z,3.58
2022-11-24T22:10:20.271Z,3.55
2022-11-24T22:15:21.770Z,3.50
2022-11-24T22:20:23.203Z,3.43
2022-11-24T22:25:24.715Z,3.41
2022-11-24T22:30:26.197Z,3.43
2022-11-24T22:35:27.663Z,3.36
2022-11-24T22:40:29.661Z,3.35
2022-11-24T22:45:31.165Z,3.34
2022-11-24T22:50:32.688Z,3.33
2022-11-24T22:55:35.496Z,3.58
2022-11-24T23:00:36.931Z,3.71
2022-11-24T23:05:38.349Z,3.69
2022-11-24T23:10:39.826Z,3.59
2022-11-24T23:15:41.297Z,3.51
2022-11-24T23:20:42.705Z,3.43
2022-11-24T23:25:44.170Z,3.34
2022-11-24T23:30:45.736Z,3.28
2022-11-24T23:35:47.242Z,3.21
2022-11-24T23:40:48.678Z,3.21
2022-11-24T23:45:50.205Z,3.24
2022-11-24T23:50:51.754Z,3.24
2022-11-24T23:55:54.950Z,3.31
